Time;durP1;ratioP1;P1;durP2;ratioP2;P2;SDS_P1;SDS_P2;PMS_P1;PMS_P2;Temp;Humidity;BMP_temperature;BMP_pressure;BME280_temperature;BME280_humidity;BME280_pressure;Samples;Min_cycle;Max_cycle;Signal;HPM_P1;HPM_P2
2023/10/08 00:38:00;;;;;;;0.40;0.30;;;;;;;;;;5082831;27;20566;-61
2023/10/08 00:40:39;;;;;;;2.30;0.60;;;;;;;;;;5139957;27;20039;-61
2023/10/08 00:43:36;;;;;;;0.43;0.40;;;;;;;;;;5158251;27;20376;-61
2023/10/08 01:03:49;;;;;;;0.20;0.20;;;;;;;;;;5074136;28;20093;-61
2023/10/08 01:06:23;;;;;;;0.55;0.20;;;;;;;;;;5103240;27;20042;-62
2023/10/08 01:08:52;;;;;;;0.20;0.20;;;;;;;;;;5158241;27;20554;-62
2023/10/08 01:11:45;;;;;;;0.30;0.30;;;;;;;;;;5157440;27;20438;-61
2023/10/08 01:14:32;;;;;;;1.40;0.20;;;;;;;;;;5157375;27;20038;-61
2023/10/08 01:17:06;;;;;;;0.30;0.30;;;;;;;;;;5157349;27;20060;-61
2023/10/08 01:19:32;;;;;;;0.30;0.30;;;;;;;;;;5157380;27;20079;-60
2023/10/08 01:22:06;;;;;;;0.73;0.20;;;;;;;;;;5139724;27;20035;-60
2023/10/08 01:24:36;;;;;;;0.40;0.40;;;;;;;;;;5157271;27;20023;-60
2023/10/08 01:27:11;;;;;;;0.50;0.50;;;;;;;;;;5138492;27;20492;-62
2023/10/08 01:29:36;;;;;;;0.77;0.50;;;;;;;;;;5156992;27;20066;-62
2023/10/08 01:32:11;;;;;;;0.98;0.50;;;;;;;;;;5157355;27;20038;-62
2023/10/08 01:34:36;;;;;;;0.77;0.70;;;;;;;;;;5138393;27;20361;-61
2023/10/08 01:37:19;;;;;;;0.95;0.55;;;;;;;;;;5152173;27;20038;-62
2023/10/08 01:40:01;;;;;;;2.20;0.70;;;;;;;;;;5157174;27;20065;-61
2023/10/08 01:42:38;;;;;;;0.70;0.70;;;;;;;;;;5138106;27;20129;-61
2023/10/08 01:45:16;;;;;;;0.60;0.60;;;;;;;;;;5140051;27;20034;-61
2023/10/08 01:47:51;;;;;;;1.20;0.82;;;;;;;;;;5156631;27;20476;-60
2023/10/08 01:50:27;;;;;;;0.80;0.80;;;;;;;;;;5137984;27;20046;-61
2023/10/08 01:53:00;;;;;;;0.50;0.50;;;;;;;;;;5157262;27;20513;-61
2023/10/08 01:55:26;;;;;;;0.70;0.40;;;;;;;;;;5138032;27;20034;-61
2023/10/08 01:57:58;;;;;;;1.58;0.70;;;;;;;;;;5156661;27;20050;-60
2023/10/08 02:00:24;;;;;;;0.63;0.63;;;;;;;;;;5121233;27;20386;-60
2023/10/08 02:02:59;;;;;;;0.98;0.60;;;;;;;;;;5139237;27;20484;-59
2023/10/08 02:05:34;;;;;;;1.38;0.55;;;;;;;;;;5137814;27;20076;-61
2023/10/08 02:07:59;;;;;;;0.68;0.52;;;;;;;;;;5156801;27;20026;-61
2023/10/08 02:10:30;;;;;;;0.70;0.65;;;;;;;;;;5137640;27;20049;-61
2023/10/08 02:13:03;;;;;;;0.50;0.50;;;;;;;;;;5139257;27;20031;-61
2023/10/08 02:15:29;;;;;;;0.40;0.40;;;;;;;;;;5137665;27;20052;-61
2023/10/08 02:18:08;;;;;;;0.60;0.40;;;;;;;;;;5156488;27;20513;-60
2023/10/08 02:20:41;;;;;;;0.40;0.40;;;;;;;;;;5138756;27;20038;-60
2023/10/08 02:23:13;;;;;;;0.43;0.40;;;;;;;;;;5156371;27;20437;-60
2023/10/08 02:25:39;;;;;;;1.17;0.40;;;;;;;;;;5138331;27;20068;-61
2023/10/08 02:28:15;;;;;;;0.50;0.40;;;;;;;;;;5137843;27;20472;-61
2023/10/08 02:30:47;;;;;;;0.50;0.40;;;;;;;;;;5155838;27;20480;-60
2023/10/08 02:33:15;;;;;;;1.23;0.50;;;;;;;;;;5137276;27;20030;-61
2023/10/08 02:35:49;;;;;;;0.43;0.40;;;;;;;;;;5137250;27;20494;-62
2023/10/08 02:38:17;;;;;;;0.30;0.30;;;;;;;;;;5150280;27;20066;-62
2023/10/08 02:40:49;;;;;;;0.30;0.30;;;;;;;;;;5156020;27;20046;-61
2023/10/08 02:43:21;;;;;;;0.28;0.28;;;;;;;;;;5155989;27;20057;-62
2023/10/08 02:45:49;;;;;;;0.50;0.40;;;;;;;;;;5155658;27;20469;-63
2023/10/08 02:48:21;;;;;;;0.30;0.30;;;;;;;;;;5137053;27;20042;-63
2023/10/08 02:50:54;;;;;;;0.30;0.30;;;;;;;;;;5136953;27;20038;-62
2023/10/08 02:53:26;;;;;;;0.20;0.20;;;;;;;;;;5137597;27;20422;-62
2023/10/08 02:55:58;;;;;;;0.30;0.30;;;;;;;;;;5155527;27;20038;-64
2023/10/08 02:58:25;;;;;;;0.80;0.40;;;;;;;;;;5155481;27;20018;-63
2023/10/08 03:00:57;;;;;;;0.40;0.40;;;;;;;;;;5136939;27;20045;-63
2023/10/08 03:03:29;;;;;;;0.30;0.30;;;;;;;;;;5156001;27;20030;-63
2023/10/08 03:06:03;;;;;;;0.30;0.30;;;;;;;;;;5136846;27;20097;-64
2023/10/08 03:08:36;;;;;;;0.63;0.50;;;;;;;;;;5155487;27;20091;-63
2023/10/08 03:11:17;;;;;;;0.50;0.50;;;;;;;;;;5136743;27;20088;-59
2023/10/08 03:13:52;;;;;;;0.40;0.40;;;;;;;;;;5155627;27;20495;-60
2023/10/08 03:16:28;;;;;;;1.65;0.40;;;;;;;;;;5136713;27;20476;-60
2023/10/08 03:19:01;;;;;;;0.35;0.32;;;;;;;;;;5136629;27;20050;-60
2023/10/08 03:24:29;;;;;;;0.68;0.43;;;;;;;;;;5155460;27;20030;-60
2023/10/08 03:27:07;;;;;;;1.65;0.50;;;;;;;;;;5155162;27;20041;-59
2023/10/08 03:29:42;;;;;;;0.90;0.80;;;;;;;;;;5140061;27;20035;-59
2023/10/08 03:32:18;;;;;;;0.90;0.70;;;;;;;;;;5140819;27;20095;-60
2023/10/08 03:34:50;;;;;;;1.80;0.88;;;;;;;;;;5140794;27;20035;-60
2023/10/08 03:37:21;;;;;;;0.95;0.85;;;;;;;;;;5138646;27;20160;-60
2023/10/08 03:42:51;;;;;;;2.30;0.80;;;;;;;;;;5034103;28;20049;-60
2023/10/08 03:45:48;;;;;;;1.25;0.70;;;;;;;;;;5033851;28;20104;-60
2023/10/08 03:48:15;;;;;;;1.52;0.80;;;;;;;;;;5033650;28;20036;-60
2023/10/08 03:50:56;;;;;;;2.10;0.80;;;;;;;;;;5034229;28;20048;-59
2023/10/08 03:53:31;;;;;;;2.45;0.80;;;;;;;;;;5033970;28;20033;-61
2023/10/08 03:55:58;;;;;;;1.35;0.75;;;;;;;;;;5033651;28;20109;-61
2023/10/08 03:58:32;;;;;;;1.50;1.05;;;;;;;;;;5033676;28;20041;-61
2023/10/08 04:01:32;;;;;;;1.20;0.80;;;;;;;;;;5102475;28;20550;-60
2023/10/08 04:03:58;;;;;;;2.00;0.80;;;;;;;;;;5033779;28;20094;-60
2023/10/08 04:14:24;;;;;;;1.23;0.68;;;;;;;;;;5034051;28;20483;-61
2023/10/08 04:16:53;;;;;;;1.35;0.80;;;;;;;;;;5033750;28;20508;-61
2023/10/08 04:19:29;;;;;;;1.35;0.68;;;;;;;;;;5033381;28;20041;-61
2023/10/08 04:21:55;;;;;;;2.78;0.75;;;;;;;;;;5033804;28;20381;-63
2023/10/08 04:24:36;;;;;;;1.45;0.90;;;;;;;;;;5033187;28;20487;-63
2023/10/08 04:27:09;;;;;;;1.45;0.80;;;;;;;;;;5033354;28;20041;-63
2023/10/08 04:29:42;;;;;;;1.92;0.93;;;;;;;;;;5033007;28;20087;-64
2023/10/08 04:32:22;;;;;;;1.17;0.80;;;;;;;;;;5033544;28;20040;-63
2023/10/08 04:34:56;;;;;;;1.48;0.70;;;;;;;;;;5098792;28;20064;-64
2023/10/08 04:37:33;;;;;;;1.60;0.60;;;;;;;;;;5036262;27;20420;-61
2023/10/08 04:40:16;;;;;;;2.67;0.90;;;;;;;;;;5158652;27;20091;-61
2023/10/08 04:42:48;;;;;;;3.30;1.17;;;;;;;;;;5139438;27;20392;-61
2023/10/08 04:45:13;;;;;;;0.95;0.85;;;;;;;;;;5157863;27;20027;-61
2023/10/08 04:47:49;;;;;;;1.15;0.70;;;;;;;;;;5158016;27;20030;-59
2023/10/08 04:50:15;;;;;;;1.27;0.85;;;;;;;;;;5157688;27;20456;-65
2023/10/08 04:52:58;;;;;;;1.27;0.82;;;;;;;;;;5146077;27;20022;-66
2023/10/08 04:55:30;;;;;;;0.90;0.70;;;;;;;;;;5129351;27;20031;-66
2023/10/08 04:57:58;;;;;;;1.67;0.73;;;;;;;;;;5124002;27;20456;-65
2023/10/08 05:00:53;;;;;;;2.83;0.80;;;;;;;;;;5133204;27;20035;-66
2023/10/08 05:03:32;;;;;;;0.95;0.85;;;;;;;;;;5144181;27;20043;-67
2023/10/08 05:06:21;;;;;;;1.65;0.80;;;;;;;;;;5137142;27;20103;-67
2023/10/08 05:08:59;;;;;;;0.70;0.70;;;;;;;;;;5139599;27;20545;-66
2023/10/08 05:12:08;;;;;;;1.63;0.60;;;;;;;;;;5140296;27;20552;-68
2023/10/08 05:15:09;;;;;;;1.48;0.80;;;;;;;;;;5157682;27;20076;-66
2023/10/08 05:23:32;;;;;;;1.08;0.70;;;;;;;;;;5136989;27;20047;-58
2023/10/08 05:28:46;;;;;;;2.25;0.90;;;;;;;;;;5136447;27;20027;-59
2023/10/08 05:34:16;;;;;;;1.85;0.80;;;;;;;;;;5136979;27;20039;-58
2023/10/08 05:37:14;;;;;;;1.15;0.90;;;;;;;;;;5136544;27;20031;-58
2023/10/08 05:42:13;;;;;;;0.93;0.70;;;;;;;;;;5136416;27;20553;-58
2023/10/08 05:44:45;;;;;;;1.25;0.85;;;;;;;;;;5136119;27;20039;-58
2023/10/08 05:49:53;;;;;;;1.48;1.00;;;;;;;;;;5135944;27;20092;-58
2023/10/08 05:52:27;;;;;;;1.67;1.00;;;;;;;;;;5134442;27;20438;-58
2023/10/08 05:55:26;;;;;;;2.97;0.85;;;;;;;;;;5136169;27;20054;-58
2023/10/08 05:57:52;;;;;;;2.80;1.17;;;;;;;;;;5133762;27;20039;-58
2023/10/08 06:00:30;;;;;;;2.08;1.00;;;;;;;;;;5136061;27;20066;-59
2023/10/08 06:03:09;;;;;;;1.05;0.80;;;;;;;;;;5133509;27;20039;-58
2023/10/08 06:05:43;;;;;;;1.10;1.00;;;;;;;;;;5134980;27;20066;-58
2023/10/08 06:08:13;;;;;;;0.85;0.85;;;;;;;;;;5134928;27;20134;-58
2023/10/08 06:18:28;;;;;;;1.20;0.70;;;;;;;;;;5134941;27;20537;-59
2023/10/08 06:20:58;;;;;;;1.50;0.93;;;;;;;;;;5134918;27;20038;-58
2023/10/08 06:23:24;;;;;;;2.92;0.95;;;;;;;;;;5134264;27;20107;-59
2023/10/08 06:26:05;;;;;;;1.00;0.90;;;;;;;;;;5134898;27;20472;-59
2023/10/08 06:28:31;;;;;;;0.90;0.90;;;;;;;;;;5134410;27;20045;-59
2023/10/08 06:30:58;;;;;;;2.55;1.00;;;;;;;;;;5134591;27;20043;-59
2023/10/08 06:33:30;;;;;;;1.70;1.02;;;;;;;;;;5134308;27;20030;-59
2023/10/08 06:36:02;;;;;;;1.42;1.10;;;;;;;;;;5134501;27;20089;-59
2023/10/08 06:38:30;;;;;;;1.08;0.90;;;;;;;;;;5115777;27;20038;-59
2023/10/08 06:40:59;;;;;;;1.63;1.20;;;;;;;;;;5116313;28;20034;-59
2023/10/08 06:43:26;;;;;;;2.38;1.20;;;;;;;;;;5133911;27;20031;-64
2023/10/08 06:45:52;;;;;;;3.53;1.30;;;;;;;;;;5134421;27;20126;-63
2023/10/08 06:48:19;;;;;;;2.58;1.20;;;;;;;;;;5133904;27;20043;-63
2023/10/08 06:50:45;;;;;;;1.35;1.10;;;;;;;;;;5115543;27;20142;-63
2023/10/08 06:53:13;;;;;;;2.47;1.40;;;;;;;;;;5134419;27;20166;-63
2023/10/08 06:55:40;;;;;;;1.40;1.17;;;;;;;;;;5134048;27;20035;-63
2023/10/08 06:58:08;;;;;;;2.88;1.30;;;;;;;;;;5134375;27;20477;-63
2023/10/08 07:00:40;;;;;;;2.22;1.08;;;;;;;;;;5133862;27;20394;-63
2023/10/08 07:03:14;;;;;;;1.70;1.23;;;;;;;;;;5133244;27;20042;-63
2023/10/08 07:05:41;;;;;;;2.08;1.30;;;;;;;;;;5134257;27;20523;-63
2023/10/08 07:08:12;;;;;;;1.67;1.30;;;;;;;;;;5133384;27;20080;-63
2023/10/08 07:10:38;;;;;;;1.80;1.17;;;;;;;;;;5115129;28;20063;-63
2023/10/08 07:13:04;;;;;;;2.13;1.38;;;;;;;;;;5133863;28;20115;-63
2023/10/08 07:15:32;;;;;;;3.13;1.48;;;;;;;;;;5114886;28;20155;-63
2023/10/08 07:18:07;;;;;;;3.40;1.33;;;;;;;;;;5133554;28;20053;-63
2023/10/08 07:20:38;;;;;;;1.45;1.35;;;;;;;;;;5133416;28;20039;-63
2023/10/08 07:23:09;;;;;;;1.45;1.08;;;;;;;;;;5133783;28;20159;-63
2023/10/08 07:25:37;;;;;;;2.13;1.30;;;;;;;;;;5133372;28;20043;-63
2023/10/08 07:28:12;;;;;;;1.63;1.40;;;;;;;;;;5133469;28;20533;-63
2023/10/08 07:30:43;;;;;;;3.33;1.42;;;;;;;;;;5133056;28;20042;-63
2023/10/08 07:33:17;;;;;;;2.42;1.35;;;;;;;;;;5133677;28;20031;-63
2023/10/08 07:35:54;;;;;;;6.07;2.95;;;;;;;;;;5133236;28;20062;-63
2023/10/08 07:38:21;;;;;;;17.10;10.18;;;;;;;;;;5133428;28;20043;-63
2023/10/08 07:40:48;;;;;;;7.80;4.63;;;;;;;;;;5133837;28;20084;-63
2023/10/08 07:43:14;;;;;;;18.20;10.38;;;;;;;;;;5133767;28;20330;-63
2023/10/08 07:45:40;;;;;;;12.88;9.30;;;;;;;;;;5115720;28;20055;-62
2023/10/08 07:48:09;;;;;;;3.72;2.78;;;;;;;;;;5133533;28;20526;-62
2023/10/08 07:50:37;;;;;;;8.57;7.53;;;;;;;;;;5133527;28;20024;-62
2023/10/08 07:53:04;;;;;;;3.72;2.80;;;;;;;;;;5133682;28;20031;-62
2023/10/08 07:55:32;;;;;;;2.17;1.52;;;;;;;;;;5133490;28;20035;-62
2023/10/08 07:57:58;;;;;;;2.17;1.77;;;;;;;;;;5133811;28;20031;-62
2023/10/08 08:00:25;;;;;;;2.63;2.33;;;;;;;;;;5132989;28;20501;-62
2023/10/08 08:02:53;;;;;;;2.90;1.92;;;;;;;;;;5132878;28;20043;-62
2023/10/08 08:05:18;;;;;;;3.67;2.00;;;;;;;;;;5133288;28;20039;-62
2023/10/08 08:07:49;;;;;;;2.80;2.05;;;;;;;;;;5133170;28;20035;-63
2023/10/08 08:10:14;;;;;;;3.38;1.90;;;;;;;;;;5133354;28;20457;-63
2023/10/08 08:12:40;;;;;;;1.50;1.40;;;;;;;;;;5114005;28;20118;-63
2023/10/08 08:15:14;;;;;;;2.22;1.90;;;;;;;;;;5134752;27;20023;-64
2023/10/08 08:17:43;;;;;;;2.50;1.92;;;;;;;;;;5137208;27;20069;-64
2023/10/08 08:20:19;;;;;;;3.10;1.88;;;;;;;;;;5137491;27;20068;-66
2023/10/08 08:22:54;;;;;;;2.08;1.70;;;;;;;;;;5137285;27;20043;-65
2023/10/08 08:25:42;;;;;;;2.25;2.05;;;;;;;;;;5136888;27;20104;-65
2023/10/08 08:28:16;;;;;;;2.67;2.10;;;;;;;;;;5137078;27;20042;-65
2023/10/08 08:30:50;;;;;;;3.40;2.88;;;;;;;;;;5136919;27;20035;-65
2023/10/08 08:33:22;;;;;;;3.13;1.50;;;;;;;;;;5137249;27;20606;-66
2023/10/08 08:35:57;;;;;;;2.88;1.55;;;;;;;;;;5137212;27;20122;-65
2023/10/08 08:38:23;;;;;;;1.50;1.40;;;;;;;;;;5137131;27;20092;-66
2023/10/08 08:40:49;;;;;;;7.43;4.45;;;;;;;;;;5136561;27;20122;-65
2023/10/08 08:43:16;;;;;;;5.80;2.63;;;;;;;;;;5118347;27;20070;-65
2023/10/08 08:45:43;;;;;;;17.77;9.63;;;;;;;;;;5136918;27;20064;-66
2023/10/08 08:48:11;;;;;;;1.90;1.65;;;;;;;;;;5105513;27;20019;-65
2023/10/08 08:50:38;;;;;;;4.93;3.40;;;;;;;;;;5130047;27;20481;-64
2023/10/08 08:53:04;;;;;;;1.58;1.45;;;;;;;;;;5128562;27;20023;-59
2023/10/08 08:55:32;;;;;;;2.47;2.10;;;;;;;;;;5144481;27;20031;-65
2023/10/08 08:57:59;;;;;;;3.33;2.47;;;;;;;;;;5137970;27;20031;-66
2023/10/08 09:00:28;;;;;;;2.38;1.80;;;;;;;;;;5127137;27;20039;-66
2023/10/08 09:02:55;;;;;;;7.63;4.05;;;;;;;;;;5156400;27;20521;-66
2023/10/08 09:05:33;;;;;;;2.45;1.38;;;;;;;;;;5153914;27;20046;-67
2023/10/08 09:07:58;;;;;;;1.55;1.40;;;;;;;;;;5136326;27;20150;-66
2023/10/08 09:10:28;;;;;;;1.75;1.65;;;;;;;;;;5136029;27;20608;-66
2023/10/08 09:12:58;;;;;;;1.55;1.30;;;;;;;;;;5118041;27;20429;-66
2023/10/08 09:15:23;;;;;;;1.73;1.60;;;;;;;;;;5136619;27;20459;-66
2023/10/08 09:17:49;;;;;;;1.75;1.30;;;;;;;;;;5136647;27;20031;-66
2023/10/08 09:20:15;;;;;;;1.65;1.55;;;;;;;;;;5136684;27;20042;-66
2023/10/08 09:22:41;;;;;;;2.38;1.80;;;;;;;;;;5136572;27;20449;-59
2023/10/08 09:25:07;;;;;;;1.80;1.45;;;;;;;;;;5137113;27;20054;-68
2023/10/08 09:27:32;;;;;;;2.20;1.42;;;;;;;;;;5100586;27;20031;-68
2023/10/08 09:30:07;;;;;;;2.92;1.40;;;;;;;;;;5136298;27;20122;-68
2023/10/08 09:32:33;;;;;;;1.20;1.10;;;;;;;;;;5136179;27;20487;-68
2023/10/08 09:34:59;;;;;;;3.05;1.20;;;;;;;;;;5136152;27;20027;-68
2023/10/08 09:37:24;;;;;;;2.30;1.10;;;;;;;;;;5135538;27;20035;-68
2023/10/08 09:39:52;;;;;;;3.22;2.35;;;;;;;;;;5133922;27;20043;-68
2023/10/08 09:42:21;;;;;;;1.98;1.40;;;;;;;;;;5134017;27;20039;-68
2023/10/08 09:44:47;;;;;;;6.78;4.22;;;;;;;;;;5134107;27;20035;-68
2023/10/08 09:47:15;;;;;;;2.70;1.85;;;;;;;;;;5133407;27;20551;-68
2023/10/08 09:49:48;;;;;;;1.40;1.30;;;;;;;;;;5133139;27;20043;-68
2023/10/08 09:52:15;;;;;;;1.20;0.90;;;;;;;;;;5133455;27;20047;-68
2023/10/08 09:54:48;;;;;;;1.98;1.60;;;;;;;;;;5134282;27;20035;-68
2023/10/08 09:57:18;;;;;;;1.83;0.90;;;;;;;;;;5134768;27;20035;-68
2023/10/08 09:59:44;;;;;;;7.60;5.17;;;;;;;;;;5134677;27;20031;-68
2023/10/08 10:02:10;;;;;;;2.25;1.13;;;;;;;;;;5135753;27;20039;-67
2023/10/08 10:04:42;;;;;;;1.15;0.90;;;;;;;;;;5135725;27;20526;-67
2023/10/08 10:07:16;;;;;;;0.60;0.60;;;;;;;;;;5135951;27;20039;-67
2023/10/08 10:09:46;;;;;;;1.38;1.27;;;;;;;;;;5135969;27;20532;-67
2023/10/08 10:12:12;;;;;;;1.05;0.95;;;;;;;;;;5135865;27;20027;-67
2023/10/08 10:14:47;;;;;;;0.73;0.70;;;;;;;;;;5117180;27;20039;-67
2023/10/08 10:17:20;;;;;;;1.25;1.10;;;;;;;;;;5135756;27;20110;-67
2023/10/08 10:19:50;;;;;;;1.23;0.85;;;;;;;;;;5135982;27;20051;-67
2023/10/08 10:22:27;;;;;;;1.07;0.87;;;;;;;;;;5135410;27;20110;-67
2023/10/08 10:24:53;;;;;;;2.05;1.10;;;;;;;;;;5116898;27;20495;-67
2023/10/08 10:27:18;;;;;;;1.50;0.80;;;;;;;;;;5135581;27;20027;-67
2023/10/08 10:29:44;;;;;;;1.23;1.05;;;;;;;;;;5116744;27;20044;-67
2023/10/08 10:32:10;;;;;;;1.02;0.90;;;;;;;;;;5135506;27;20502;-67
2023/10/08 10:34:38;;;;;;;2.00;1.02;;;;;;;;;;5135477;27;20073;-67
2023/10/08 10:37:19;;;;;;;1.10;1.00;;;;;;;;;;5135229;27;20469;-67
2023/10/08 10:40:00;;;;;;;0.77;0.77;;;;;;;;;;5099435;28;20072;-67
2023/10/08 10:42:28;;;;;;;0.80;0.80;;;;;;;;;;5031314;28;20094;-67
2023/10/08 10:44:55;;;;;;;0.70;0.70;;;;;;;;;;5031640;28;20042;-67
2023/10/08 10:49:53;;;;;;;0.85;0.60;;;;;;;;;;5031225;28;20094;-67
2023/10/08 10:52:31;;;;;;;0.90;0.60;;;;;;;;;;5031266;28;20092;-67
2023/10/08 10:55:17;;;;;;;0.68;0.68;;;;;;;;;;5099022;28;20038;-67
2023/10/08 10:57:44;;;;;;;1.02;0.93;;;;;;;;;;5031185;28;20076;-67
2023/10/08 11:00:46;;;;;;;0.80;0.73;;;;;;;;;;5030901;28;20041;-67
2023/10/08 11:03:15;;;;;;;0.70;0.70;;;;;;;;;;5030871;28;20547;-67
2023/10/08 11:05:47;;;;;;;0.93;0.90;;;;;;;;;;5031119;28;20090;-67
2023/10/08 11:08:14;;;;;;;1.02;0.88;;;;;;;;;;5031032;28;20069;-67
2023/10/08 11:10:46;;;;;;;0.95;0.77;;;;;;;;;;5031011;28;20443;-67
2023/10/08 11:13:14;;;;;;;1.10;0.73;;;;;;;;;;5030703;28;20062;-67
2023/10/08 11:15:40;;;;;;;0.70;0.70;;;;;;;;;;5099191;28;20080;-67
2023/10/08 11:18:15;;;;;;;1.27;0.82;;;;;;;;;;5030962;28;20069;-67
2023/10/08 11:20:40;;;;;;;0.60;0.60;;;;;;;;;;5030926;28;20112;-67
2023/10/08 11:23:18;;;;;;;2.10;0.90;;;;;;;;;;5030647;28;20462;-67
2023/10/08 11:26:02;;;;;;;1.35;0.80;;;;;;;;;;5030599;28;20121;-67
2023/10/08 11:28:28;;;;;;;1.02;0.85;;;;;;;;;;5031114;28;20053;-67
2023/10/08 11:30:54;;;;;;;1.40;0.90;;;;;;;;;;5030433;28;20124;-67
2023/10/08 11:33:19;;;;;;;1.20;0.93;;;;;;;;;;5031051;28;20077;-67
2023/10/08 11:36:00;;;;;;;1.92;0.70;;;;;;;;;;5030728;28;20034;-67
2023/10/08 11:38:27;;;;;;;1.40;0.80;;;;;;;;;;5098595;28;20124;-67
2023/10/08 11:40:56;;;;;;;1.25;0.90;;;;;;;;;;5030636;28;20386;-67
2023/10/08 11:43:24;;;;;;;0.73;0.73;;;;;;;;;;5030353;28;20098;-67
2023/10/08 11:45:50;;;;;;;0.68;0.68;;;;;;;;;;5099179;28;20463;-67
2023/10/08 11:48:38;;;;;;;0.55;0.47;;;;;;;;;;5098578;28;20045;-67
2023/10/08 11:51:05;;;;;;;1.75;0.70;;;;;;;;;;5033910;28;20041;-67
2023/10/08 11:53:31;;;;;;;1.70;0.80;;;;;;;;;;5033685;28;20464;-67
2023/10/08 11:55:57;;;;;;;0.93;0.70;;;;;;;;;;5033680;28;20059;-67
2023/10/08 11:58:35;;;;;;;0.68;0.60;;;;;;;;;;5034199;28;20041;-67
2023/10/08 12:01:03;;;;;;;1.25;0.93;;;;;;;;;;5033581;28;20049;-67
2023/10/08 12:03:28;;;;;;;1.05;0.77;;;;;;;;;;5034088;28;20037;-67
2023/10/08 12:05:59;;;;;;;2.50;0.77;;;;;;;;;;5033514;28;20045;-67
2023/10/08 12:08:27;;;;;;;0.68;0.68;;;;;;;;;;5033790;28;20386;-67
2023/10/08 12:10:54;;;;;;;1.02;0.80;;;;;;;;;;5033353;28;20061;-67
2023/10/08 12:13:24;;;;;;;0.80;0.80;;;;;;;;;;5102112;28;20493;-67
2023/10/08 12:15:51;;;;;;;1.13;0.93;;;;;;;;;;5033645;28;20038;-67
2023/10/08 12:18:25;;;;;;;0.80;0.80;;;;;;;;;;5033912;28;20117;-67
2023/10/08 12:20:50;;;;;;;0.73;0.70;;;;;;;;;;5101874;28;20102;-67
2023/10/08 12:23:25;;;;;;;1.13;0.90;;;;;;;;;;5033578;28;20022;-67
2023/10/08 12:25:52;;;;;;;1.00;0.90;;;;;;;;;;5101788;28;20048;-67
2023/10/08 12:28:18;;;;;;;0.90;0.70;;;;;;;;;;5033202;28;20041;-68
2023/10/08 12:30:45;;;;;;;0.88;0.80;;;;;;;;;;5101761;28;20044;-60
2023/10/08 12:33:15;;;;;;;2.05;0.88;;;;;;;;;;5100391;28;20037;-60
2023/10/08 12:35:41;;;;;;;0.65;0.60;;;;;;;;;;5033114;28;20041;-60
2023/10/08 12:38:08;;;;;;;2.17;0.77;;;;;;;;;;5062123;27;20080;-60
2023/10/08 12:43:21;;;;;;;1.20;0.80;;;;;;;;;;5137893;27;20035;-60
2023/10/08 12:45:53;;;;;;;1.27;0.80;;;;;;;;;;5137612;27;20053;-60
2023/10/08 12:48:22;;;;;;;1.40;0.70;;;;;;;;;;5137253;27;20035;-59
2023/10/08 12:50:56;;;;;;;0.80;0.80;;;;;;;;;;5118752;27;20070;-60
2023/10/08 12:53:26;;;;;;;1.20;0.63;;;;;;;;;;5137146;27;20053;-60
2023/10/08 12:55:53;;;;;;;0.88;0.85;;;;;;;;;;5137347;27;20039;-60
2023/10/08 12:58:23;;;;;;;1.30;1.13;;;;;;;;;;5137070;27;20026;-59
2023/10/08 13:00:56;;;;;;;1.38;1.00;;;;;;;;;;5136266;27;20039;-60
2023/10/08 13:03:23;;;;;;;0.70;0.70;;;;;;;;;;5118519;27;20046;-60
2023/10/08 13:05:52;;;;;;;1.00;0.93;;;;;;;;;;5137226;27;20035;-60
2023/10/08 13:08:19;;;;;;;0.98;0.52;;;;;;;;;;5136846;27;20046;-59
2023/10/08 13:10:45;;;;;;;0.70;0.70;;;;;;;;;;5137058;27;20031;-59
2023/10/08 13:13:11;;;;;;;0.80;0.68;;;;;;;;;;5137078;27;20178;-60
2023/10/08 13:15:37;;;;;;;0.70;0.70;;;;;;;;;;5136700;27;20038;-59
2023/10/08 13:18:05;;;;;;;1.02;0.70;;;;;;;;;;5137253;27;20035;-60
2023/10/08 13:20:34;;;;;;;0.77;0.77;;;;;;;;;;5137242;27;20522;-60
2023/10/08 13:23:00;;;;;;;0.88;0.75;;;;;;;;;;5136591;27;20532;-60
2023/10/08 13:25:26;;;;;;;0.68;0.68;;;;;;;;;;5137107;27;20076;-60
2023/10/08 13:27:51;;;;;;;1.30;0.70;;;;;;;;;;5118104;27;20056;-60
2023/10/08 13:30:17;;;;;;;0.82;0.80;;;;;;;;;;5136395;27;20110;-59
2023/10/08 13:32:42;;;;;;;0.90;0.68;;;;;;;;;;5136929;27;20479;-60
2023/10/08 13:35:08;;;;;;;1.02;0.73;;;;;;;;;;5136895;27;20035;-60
2023/10/08 13:37:35;;;;;;;0.80;0.55;;;;;;;;;;5136107;27;20039;-60
2023/10/08 13:40:00;;;;;;;1.33;0.70;;;;;;;;;;5136251;27;20088;-60
2023/10/08 13:42:27;;;;;;;1.10;0.80;;;;;;;;;;5136179;27;20473;-60
2023/10/08 13:44:53;;;;;;;1.30;0.75;;;;;;;;;;5136146;27;20168;-67
2023/10/08 13:47:19;;;;;;;0.73;0.57;;;;;;;;;;5136363;27;20074;-67
2023/10/08 13:49:46;;;;;;;0.93;0.90;;;;;;;;;;5117584;27;20469;-68
2023/10/08 13:52:14;;;;;;;0.88;0.75;;;;;;;;;;5117716;27;20092;-67
2023/10/08 13:54:47;;;;;;;0.98;0.70;;;;;;;;;;5136501;27;20084;-67
2023/10/08 13:57:14;;;;;;;1.83;0.77;;;;;;;;;;5136429;27;20039;-67
2023/10/08 13:59:40;;;;;;;0.65;0.63;;;;;;;;;;5136123;27;20110;-67
2023/10/08 14:02:14;;;;;;;0.77;0.77;;;;;;;;;;5136386;27;20031;-67
2023/10/08 14:04:43;;;;;;;0.60;0.60;;;;;;;;;;5136064;27;20123;-67
2023/10/08 14:07:16;;;;;;;1.00;0.68;;;;;;;;;;5117270;27;20031;-67
2023/10/08 14:09:42;;;;;;;1.65;0.80;;;;;;;;;;5136088;27;20515;-67
2023/10/08 14:12:08;;;;;;;1.02;0.80;;;;;;;;;;5135183;27;20031;-67
2023/10/08 14:14:34;;;;;;;1.73;0.73;;;;;;;;;;5117562;27;20035;-67
2023/10/08 14:17:03;;;;;;;0.80;0.63;;;;;;;;;;5135802;27;20106;-67
2023/10/08 14:19:35;;;;;;;1.30;0.73;;;;;;;;;;5135724;27;20035;-67
2023/10/08 14:22:03;;;;;;;2.55;0.80;;;;;;;;;;5117009;27;20058;-67
2023/10/08 14:24:32;;;;;;;0.80;0.80;;;;;;;;;;5135676;27;20031;-67
2023/10/08 14:27:02;;;;;;;1.02;0.93;;;;;;;;;;5135355;27;20032;-67
2023/10/08 14:29:28;;;;;;;2.38;1.00;;;;;;;;;;5135302;27;20088;-67
2023/10/08 14:31:56;;;;;;;0.98;0.95;;;;;;;;;;5135426;27;20034;-67
2023/10/08 14:42:53;;;;;;;0.93;0.80;;;;;;;;;;5117453;27;20130;-67
2023/10/08 14:45:19;;;;;;;1.13;0.90;;;;;;;;;;5135206;27;20091;-67
2023/10/08 14:47:45;;;;;;;1.98;0.80;;;;;;;;;;5135010;27;20027;-67
2023/10/08 14:50:17;;;;;;;0.80;0.57;;;;;;;;;;5134886;27;20505;-67
2023/10/08 14:52:46;;;;;;;1.10;0.70;;;;;;;;;;5135506;27;20463;-67
2023/10/08 14:55:12;;;;;;;1.70;0.98;;;;;;;;;;5116937;27;20045;-67
2023/10/08 14:57:38;;;;;;;1.35;0.90;;;;;;;;;;5134914;27;20047;-67
2023/10/08 15:00:05;;;;;;;0.95;0.90;;;;;;;;;;5135420;27;20185;-68
2023/10/08 15:02:30;;;;;;;0.80;0.77;;;;;;;;;;5116439;27;20490;-67
2023/10/08 15:04:58;;;;;;;2.92;0.65;;;;;;;;;;5134797;27;20069;-67
2023/10/08 15:07:23;;;;;;;3.20;1.10;;;;;;;;;;5116343;27;20069;-67
2023/10/08 15:09:49;;;;;;;0.80;0.80;;;;;;;;;;5135215;27;20031;-67
2023/10/08 15:12:16;;;;;;;1.30;0.75;;;;;;;;;;5134985;27;20050;-67
2023/10/08 15:14:42;;;;;;;2.15;0.80;;;;;;;;;;5134941;28;20043;-68
2023/10/08 15:17:07;;;;;;;1.50;1.00;;;;;;;;;;5134615;28;20033;-68
2023/10/08 15:19:33;;;;;;;1.33;1.00;;;;;;;;;;5134617;28;20039;-68
2023/10/08 15:21:59;;;;;;;1.42;0.95;;;;;;;;;;5134892;28;20031;-67
2023/10/08 15:24:24;;;;;;;1.42;1.02;;;;;;;;;;5135844;27;20483;-68
2023/10/08 15:26:52;;;;;;;1.75;0.85;;;;;;;;;;5138871;27;20037;-68
2023/10/08 15:29:21;;;;;;;1.20;1.05;;;;;;;;;;5120357;27;20031;-68
2023/10/08 15:31:49;;;;;;;1.65;0.80;;;;;;;;;;5139280;27;20042;-68
2023/10/08 15:34:14;;;;;;;1.55;1.08;;;;;;;;;;5139247;27;20062;-67
2023/10/08 15:36:40;;;;;;;1.30;1.20;;;;;;;;;;5138472;27;20071;-67
2023/10/08 15:39:09;;;;;;;2.00;1.23;;;;;;;;;;5078343;27;20045;-67
2023/10/08 15:41:37;;;;;;;1.30;1.20;;;;;;;;;;5052592;28;20105;-67
2023/10/08 15:44:03;;;;;;;1.70;1.25;;;;;;;;;;5052361;28;20049;-67
2023/10/08 15:46:28;;;;;;;1.30;1.15;;;;;;;;;;5121849;27;20116;-68
2023/10/08 15:48:54;;;;;;;1.75;1.02;;;;;;;;;;5052339;28;20037;-68
2023/10/08 15:51:19;;;;;;;1.38;1.27;;;;;;;;;;5121246;27;20482;-69
2023/10/08 15:53:45;;;;;;;2.70;1.52;;;;;;;;;;5052410;28;20423;-68
2023/10/08 15:56:11;;;;;;;1.60;1.42;;;;;;;;;;5052395;28;20044;-68
2023/10/08 15:58:36;;;;;;;1.83;1.65;;;;;;;;;;5052374;28;20497;-68
2023/10/08 16:01:01;;;;;;;1.90;1.50;;;;;;;;;;5052320;28;20124;-68
2023/10/08 16:03:27;;;;;;;2.28;1.55;;;;;;;;;;5052390;28;20062;-68
2023/10/08 16:05:54;;;;;;;1.90;1.60;;;;;;;;;;5121093;27;20499;-68
2023/10/08 16:08:20;;;;;;;1.80;1.70;;;;;;;;;;5052284;28;20045;-68
2023/10/08 16:10:45;;;;;;;3.05;1.60;;;;;;;;;;5051963;28;20074;-68
2023/10/08 16:13:11;;;;;;;2.22;1.77;;;;;;;;;;5121385;27;20041;-68
2023/10/08 16:15:37;;;;;;;2.53;1.63;;;;;;;;;;5051874;28;20033;-69
2023/10/08 16:18:03;;;;;;;2.55;1.50;;;;;;;;;;5051852;28;20021;-67
2023/10/08 16:20:30;;;;;;;4.43;2.53;;;;;;;;;;5052189;28;20122;-67
2023/10/08 16:22:56;;;;;;;2.80;2.05;;;;;;;;;;5051826;28;20147;-67
2023/10/08 16:25:21;;;;;;;9.80;5.47;;;;;;;;;;5052074;28;20040;-68
2023/10/08 16:27:48;;;;;;;18.48;10.75;;;;;;;;;;5051700;28;20033;-68
2023/10/08 16:30:19;;;;;;;22.33;11.77;;;;;;;;;;5120466;27;20474;-68
2023/10/08 16:32:45;;;;;;;34.92;19.60;;;;;;;;;;5120803;27;20426;-68
2023/10/08 16:35:11;;;;;;;41.00;23.75;;;;;;;;;;5051437;28;20067;-64
2023/10/08 16:37:37;;;;;;;40.17;23.88;;;;;;;;;;5120458;27;20496;-63
2023/10/08 16:40:04;;;;;;;39.20;22.55;;;;;;;;;;5051779;28;20045;-63
2023/10/08 16:42:30;;;;;;;32.03;19.15;;;;;;;;;;5120934;27;20044;-65
2023/10/08 16:44:56;;;;;;;32.40;18.77;;;;;;;;;;5052318;28;20052;-64
2023/10/08 16:47:22;;;;;;;28.65;15.82;;;;;;;;;;5052355;28;20423;-65
2023/10/08 16:49:47;;;;;;;26.73;14.95;;;;;;;;;;5051400;27;20386;-63